Noblesville, Indiana
Current Conditions -  °F | °C
As of 6:35 PM on Saturday 20 Dec 2014 (Local Time) from KTYQ Reporting Station
Overcast Overcast  
Wind Chill:   Ceiling: 7000
Heat Index:   Visibility: 7mi
Dew Point: -4°   Wind: 0mph
Humidity: 79%   Direction: NA
Pressure: 30.28"   Gusts: NA
Location:  40.05°N, 86.01°W
Report Text: KTYQ 202335Z AUTO 00000KT 7SM OVC070 00/M04 A3028 RMK AO2 T10051038
Loading
Personal Weather Stations






























Interactive Weather Map New forecast layout! Learn more

10-Day Weather Forecast

Advertisements
Track Severe Weather on mobile